sensor_id;sensor_type;location;lat;lon;timestamp;P1;durP1;ratioP1;P2;durP2;ratioP2
8777;SDS011;4425;50.872;4.712;2023-03-01T00:01:32;14.07;;;11.95;;
8777;SDS011;4425;50.872;4.712;2023-03-01T00:03:59;15.07;;;11.88;;
8777;SDS011;4425;50.872;4.712;2023-03-01T00:06:28;13.38;;;11.30;;
8777;SDS011;4425;50.872;4.712;2023-03-01T00:08:56;13.32;;;11.93;;
8777;SDS011;4425;50.872;4.712;2023-03-01T00:11:24;14.68;;;12.10;;
8777;SDS011;4425;50.872;4.712;2023-03-01T00:13:55;14.68;;;12.13;;
8777;SDS011;4425;50.872;4.712;2023-03-01T00:16:25;14.00;;;12.32;;
8777;SDS011;4425;50.872;4.712;2023-03-01T00:18:55;16.17;;;12.50;;
8777;SDS011;4425;50.872;4.712;2023-03-01T00:21:23;14.68;;;12.40;;
8777;SDS011;4425;50.872;4.712;2023-03-01T00:23:54;14.10;;;12.60;;
8777;SDS011;4425;50.872;4.712;2023-03-01T00:26:28;12.95;;;11.55;;
8777;SDS011;4425;50.872;4.712;2023-03-01T00:28:57;13.60;;;12.23;;
8777;SDS011;4425;50.872;4.712;2023-03-01T00:31:26;14.00;;;12.35;;
8777;SDS011;4425;50.872;4.712;2023-03-01T00:33:56;13.95;;;12.45;;
8777;SDS011;4425;50.872;4.712;2023-03-01T00:36:25;14.43;;;12.30;;
8777;SDS011;4425;50.872;4.712;2023-03-01T00:38:55;14.07;;;12.52;;
8777;SDS011;4425;50.872;4.712;2023-03-01T00:44:29;14.48;;;12.38;;
8777;SDS011;4425;50.872;4.712;2023-03-01T00:47:06;14.20;;;12.70;;
8777;SDS011;4425;50.872;4.712;2023-03-01T00:49:33;15.65;;;13.32;;
8777;SDS011;4425;50.872;4.712;2023-03-01T00:52:00;14.25;;;12.63;;
8777;SDS011;4425;50.872;4.712;2023-03-01T00:54:27;14.10;;;12.55;;
8777;SDS011;4425;50.872;4.712;2023-03-01T00:56:54;14.00;;;12.50;;
8777;SDS011;4425;50.872;4.712;2023-03-01T00:59:21;13.88;;;12.48;;
8777;SDS011;4425;50.872;4.712;2023-03-01T01:01:50;14.05;;;12.48;;
8777;SDS011;4425;50.872;4.712;2023-03-01T01:04:17;16.17;;;12.85;;
8777;SDS011;4425;50.872;4.712;2023-03-01T01:06:48;14.50;;;12.90;;
8777;SDS011;4425;50.872;4.712;2023-03-01T01:09:16;14.23;;;12.68;;
8777;SDS011;4425;50.872;4.712;2023-03-01T01:11:44;14.82;;;13.10;;
8777;SDS011;4425;50.872;4.712;2023-03-01T01:14:14;14.43;;;12.98;;
8777;SDS011;4425;50.872;4.712;2023-03-01T01:16:42;14.33;;;12.83;;
8777;SDS011;4425;50.872;4.712;2023-03-01T01:19:11;14.83;;;12.00;;
8777;SDS011;4425;50.872;4.712;2023-03-01T01:21:39;13.93;;;12.43;;
8777;SDS011;4425;50.872;4.712;2023-03-01T01:24:08;14.57;;;13.07;;
8777;SDS011;4425;50.872;4.712;2023-03-01T01:26:35;13.35;;;11.95;;
8777;SDS011;4425;50.872;4.712;2023-03-01T01:29:03;13.65;;;12.25;;
8777;SDS011;4425;50.872;4.712;2023-03-01T01:31:31;15.43;;;12.20;;
8777;SDS011;4425;50.872;4.712;2023-03-01T01:34:06;13.60;;;12.15;;
8777;SDS011;4425;50.872;4.712;2023-03-01T01:39:07;13.25;;;11.85;;
8777;SDS011;4425;50.872;4.712;2023-03-01T01:41:38;12.70;;;11.55;;
8777;SDS011;4425;50.872;4.712;2023-03-01T01:44:14;13.90;;;11.70;;
8777;SDS011;4425;50.872;4.712;2023-03-01T01:46:44;12.93;;;11.60;;
8777;SDS011;4425;50.872;4.712;2023-03-01T01:49:19;13.27;;;11.57;;
8777;SDS011;4425;50.872;4.712;2023-03-01T01:51:54;13.02;;;11.57;;
8777;SDS011;4425;50.872;4.712;2023-03-01T01:54:27;12.20;;;11.00;;
8777;SDS011;4425;50.872;4.712;2023-03-01T01:56:58;13.77;;;11.38;;
8777;SDS011;4425;50.872;4.712;2023-03-01T01:59:28;13.40;;;10.65;;
8777;SDS011;4425;50.872;4.712;2023-03-01T02:01:58;13.63;;;10.60;;
8777;SDS011;4425;50.872;4.712;2023-03-01T02:04:28;12.50;;;11.30;;
8777;SDS011;4425;50.872;4.712;2023-03-01T02:06:58;12.30;;;11.15;;
8777;SDS011;4425;50.872;4.712;2023-03-01T02:09:29;11.85;;;10.70;;
8777;SDS011;4425;50.872;4.712;2023-03-01T02:11:58;12.20;;;11.00;;
8777;SDS011;4425;50.872;4.712;2023-03-01T02:14:25;12.02;;;10.85;;
8777;SDS011;4425;50.872;4.712;2023-03-01T02:16:53;12.30;;;11.00;;
8777;SDS011;4425;50.872;4.712;2023-03-01T02:19:27;12.95;;;11.50;;
8777;SDS011;4425;50.872;4.712;2023-03-01T02:22:02;12.60;;;11.30;;
8777;SDS011;4425;50.872;4.712;2023-03-01T02:24:40;15.25;;;11.40;;
8777;SDS011;4425;50.872;4.712;2023-03-01T02:27:18;12.80;;;10.90;;
8777;SDS011;4425;50.872;4.712;2023-03-01T02:29:55;13.63;;;11.50;;
8777;SDS011;4425;50.872;4.712;2023-03-01T02:32:25;12.80;;;11.50;;
8777;SDS011;4425;50.872;4.712;2023-03-01T02:37:23;13.27;;;11.60;;
8777;SDS011;4425;50.872;4.712;2023-03-01T02:43:06;12.70;;;11.45;;
8777;SDS011;4425;50.872;4.712;2023-03-01T02:45:38;12.50;;;11.30;;
8777;SDS011;4425;50.872;4.712;2023-03-01T02:48:14;13.25;;;11.95;;
8777;SDS011;4425;50.872;4.712;2023-03-01T02:50:45;13.35;;;11.95;;
8777;SDS011;4425;50.872;4.712;2023-03-01T02:53:39;13.17;;;11.90;;
8777;SDS011;4425;50.872;4.712;2023-03-01T03:02:28;13.17;;;11.87;;
8777;SDS011;4425;50.872;4.712;2023-03-01T03:05:05;13.40;;;11.38;;
8777;SDS011;4425;50.872;4.712;2023-03-01T03:07:37;13.05;;;11.75;;
8777;SDS011;4425;50.872;4.712;2023-03-01T03:10:08;14.35;;;12.40;;
8777;SDS011;4425;50.872;4.712;2023-03-01T03:12:38;13.23;;;11.93;;
8777;SDS011;4425;50.872;4.712;2023-03-01T03:15:06;13.70;;;12.40;;
8777;SDS011;4425;50.872;4.712;2023-03-01T03:17:40;14.48;;;12.27;;
8777;SDS011;4425;50.872;4.712;2023-03-01T03:20:09;13.95;;;12.48;;
8777;SDS011;4425;50.872;4.712;2023-03-01T03:22:38;14.50;;;12.77;;
8777;SDS011;4425;50.872;4.712;2023-03-01T03:25:06;14.32;;;12.82;;
8777;SDS011;4425;50.872;4.712;2023-03-01T03:27:38;14.32;;;12.82;;
8777;SDS011;4425;50.872;4.712;2023-03-01T03:30:07;14.18;;;12.68;;
8777;SDS011;4425;50.872;4.712;2023-03-01T03:32:40;13.63;;;12.23;;
8777;SDS011;4425;50.872;4.712;2023-03-01T03:35:18;15.88;;;12.57;;
8777;SDS011;4425;50.872;4.712;2023-03-01T03:37:46;13.75;;;12.23;;
8777;SDS011;4425;50.872;4.712;2023-03-01T03:40:33;13.55;;;12.25;;
8777;SDS011;4425;50.872;4.712;2023-03-01T03:43:04;14.15;;;12.68;;
8777;SDS011;4425;50.872;4.712;2023-03-01T03:45:34;15.57;;;12.93;;
8777;SDS011;4425;50.872;4.712;2023-03-01T03:48:03;13.70;;;12.23;;
8777;SDS011;4425;50.872;4.712;2023-03-01T03:50:39;14.05;;;12.65;;
8777;SDS011;4425;50.872;4.712;2023-03-01T03:56:06;13.27;;;11.88;;
8777;SDS011;4425;50.872;4.712;2023-03-01T03:58:34;12.90;;;11.60;;
8777;SDS011;4425;50.872;4.712;2023-03-01T04:01:03;13.90;;;12.45;;
8777;SDS011;4425;50.872;4.712;2023-03-01T04:03:33;13.03;;;11.60;;
8777;SDS011;4425;50.872;4.712;2023-03-01T04:06:02;12.70;;;11.50;;
8777;SDS011;4425;50.872;4.712;2023-03-01T04:08:31;13.60;;;12.20;;
8777;SDS011;4425;50.872;4.712;2023-03-01T04:11:12;12.77;;;11.48;;
8777;SDS011;4425;50.872;4.712;2023-03-01T04:16:51;13.25;;;11.10;;
8777;SDS011;4425;50.872;4.712;2023-03-01T04:19:20;13.02;;;11.70;;
8777;SDS011;4425;50.872;4.712;2023-03-01T04:21:50;12.65;;;11.30;;
8777;SDS011;4425;50.872;4.712;2023-03-01T04:24:17;12.87;;;11.60;;
8777;SDS011;4425;50.872;4.712;2023-03-01T04:26:45;13.93;;;12.13;;
8777;SDS011;4425;50.872;4.712;2023-03-01T04:29:12;12.65;;;11.38;;
8777;SDS011;4425;50.872;4.712;2023-03-01T04:31:40;13.07;;;11.68;;
8777;SDS011;4425;50.872;4.712;2023-03-01T04:34:07;13.05;;;11.75;;
8777;SDS011;4425;50.872;4.712;2023-03-01T04:36:36;13.90;;;12.20;;
8777;SDS011;4425;50.872;4.712;2023-03-01T04:39:05;13.00;;;11.73;;
8777;SDS011;4425;50.872;4.712;2023-03-01T04:41:37;12.90;;;11.50;;
8777;SDS011;4425;50.872;4.712;2023-03-01T04:44:05;12.93;;;11.63;;
8777;SDS011;4425;50.872;4.712;2023-03-01T04:46:35;13.95;;;12.10;;
8777;SDS011;4425;50.872;4.712;2023-03-01T04:49:03;12.52;;;11.32;;
8777;SDS011;4425;50.872;4.712;2023-03-01T04:51:30;13.27;;;11.88;;
8777;SDS011;4425;50.872;4.712;2023-03-01T04:54:00;14.23;;;12.20;;
8777;SDS011;4425;50.872;4.712;2023-03-01T04:56:29;13.13;;;11.83;;
8777;SDS011;4425;50.872;4.712;2023-03-01T04:58:56;13.63;;;12.18;;
8777;SDS011;4425;50.872;4.712;2023-03-01T05:01:26;13.80;;;11.73;;
8777;SDS011;4425;50.872;4.712;2023-03-01T05:03:53;13.57;;;12.20;;
8777;SDS011;4425;50.872;4.712;2023-03-01T05:06:21;13.07;;;11.80;;
8777;SDS011;4425;50.872;4.712;2023-03-01T05:08:48;14.43;;;12.27;;
8777;SDS011;4425;50.872;4.712;2023-03-01T05:11:28;13.93;;;12.43;;
8777;SDS011;4425;50.872;4.712;2023-03-01T05:14:00;14.13;;;12.55;;
8777;SDS011;4425;50.872;4.712;2023-03-01T05:16:37;14.05;;;12.63;;
8777;SDS011;4425;50.872;4.712;2023-03-01T05:19:04;14.10;;;12.63;;
8777;SDS011;4425;50.872;4.712;2023-03-01T05:21:36;15.60;;;12.93;;
8777;SDS011;4425;50.872;4.712;2023-03-01T05:24:24;14.18;;;12.73;;
8777;SDS011;4425;50.872;4.712;2023-03-01T05:26:57;14.88;;;12.93;;
8777;SDS011;4425;50.872;4.712;2023-03-01T05:29:26;15.05;;;12.93;;
8777;SDS011;4425;50.872;4.712;2023-03-01T05:31:54;14.43;;;12.95;;
8777;SDS011;4425;50.872;4.712;2023-03-01T05:34:23;13.38;;;12.07;;
8777;SDS011;4425;50.872;4.712;2023-03-01T05:36:51;14.70;;;13.23;;
8777;SDS011;4425;50.872;4.712;2023-03-01T05:39:20;14.32;;;12.88;;
8777;SDS011;4425;50.872;4.712;2023-03-01T05:41:48;14.35;;;12.85;;
8777;SDS011;4425;50.872;4.712;2023-03-01T05:44:20;14.33;;;12.83;;
8777;SDS011;4425;50.872;4.712;2023-03-01T05:46:48;13.75;;;12.35;;
8777;SDS011;4425;50.872;4.712;2023-03-01T05:49:15;13.63;;;11.90;;
8777;SDS011;4425;50.872;4.712;2023-03-01T05:51:43;14.88;;;12.32;;
8777;SDS011;4425;50.872;4.712;2023-03-01T05:54:16;14.18;;;12.15;;
8777;SDS011;4425;50.872;4.712;2023-03-01T05:56:44;13.90;;;12.13;;
8777;SDS011;4425;50.872;4.712;2023-03-01T05:59:11;14.52;;;12.40;;
8777;SDS011;4425;50.872;4.712;2023-03-01T06:01:40;14.23;;;12.70;;
8777;SDS011;4425;50.872;4.712;2023-03-01T06:04:07;13.98;;;12.05;;
8777;SDS011;4425;50.872;4.712;2023-03-01T06:06:34;17.35;;;12.50;;
8777;SDS011;4425;50.872;4.712;2023-03-01T06:09:05;15.57;;;12.50;;
8777;SDS011;4425;50.872;4.712;2023-03-01T06:11:35;13.80;;;12.38;;
8777;SDS011;4425;50.872;4.712;2023-03-01T06:14:02;15.77;;;12.52;;
8777;SDS011;4425;50.872;4.712;2023-03-01T06:16:31;16.33;;;12.73;;
8777;SDS011;4425;50.872;4.712;2023-03-01T06:18:59;16.58;;;12.90;;
8777;SDS011;4425;50.872;4.712;2023-03-01T06:23:57;15.82;;;12.40;;
8777;SDS011;4425;50.872;4.712;2023-03-01T06:26:30;15.55;;;12.52;;
8777;SDS011;4425;50.872;4.712;2023-03-01T06:28:58;16.00;;;12.73;;
8777;SDS011;4425;50.872;4.712;2023-03-01T06:31:28;14.63;;;12.85;;
8777;SDS011;4425;50.872;4.712;2023-03-01T06:33:57;13.80;;;12.40;;
8777;SDS011;4425;50.872;4.712;2023-03-01T06:36:26;14.33;;;12.63;;
8777;SDS011;4425;50.872;4.712;2023-03-01T06:38:54;14.70;;;12.05;;
8777;SDS011;4425;50.872;4.712;2023-03-01T06:41:26;13.93;;;12.63;;
8777;SDS011;4425;50.872;4.712;2023-03-01T06:43:54;13.20;;;11.80;;
8777;SDS011;4425;50.872;4.712;2023-03-01T06:46:22;13.18;;;11.88;;
8777;SDS011;4425;50.872;4.712;2023-03-01T06:48:49;13.65;;;12.18;;
8777;SDS011;4425;50.872;4.712;2023-03-01T06:51:22;15.02;;;12.25;;
8777;SDS011;4425;50.872;4.712;2023-03-01T06:53:51;13.95;;;12.55;;
8777;SDS011;4425;50.872;4.712;2023-03-01T06:56:27;14.75;;;12.70;;
8777;SDS011;4425;50.872;4.712;2023-03-01T06:58:55;14.87;;;12.60;;
8777;SDS011;4425;50.872;4.712;2023-03-01T07:01:22;14.18;;;12.68;;
8777;SDS011;4425;50.872;4.712;2023-03-01T07:03:50;15.43;;;13.07;;
8777;SDS011;4425;50.872;4.712;2023-03-01T07:06:17;14.45;;;12.90;;
8777;SDS011;4425;50.872;4.712;2023-03-01T07:08:47;14.82;;;13.15;;
8777;SDS011;4425;50.872;4.712;2023-03-01T07:11:14;15.50;;;12.90;;
8777;SDS011;4425;50.872;4.712;2023-03-01T07:13:42;15.25;;;12.63;;
8777;SDS011;4425;50.872;4.712;2023-03-01T07:16:09;13.82;;;12.40;;
8777;SDS011;4425;50.872;4.712;2023-03-01T07:18:36;14.25;;;12.70;;
8777;SDS011;4425;50.872;4.712;2023-03-01T07:21:05;17.30;;;12.80;;
8777;SDS011;4425;50.872;4.712;2023-03-01T07:23:33;16.13;;;12.68;;
8777;SDS011;4425;50.872;4.712;2023-03-01T07:26:02;16.53;;;12.63;;
8777;SDS011;4425;50.872;4.712;2023-03-01T07:28:29;14.27;;;12.85;;
8777;SDS011;4425;50.872;4.712;2023-03-01T07:31:01;17.90;;;13.45;;
8777;SDS011;4425;50.872;4.712;2023-03-01T07:33:30;16.35;;;12.90;;
8777;SDS011;4425;50.872;4.712;2023-03-01T07:35:59;16.92;;;13.52;;
8777;SDS011;4425;50.872;4.712;2023-03-01T07:38:27;15.07;;;12.80;;
8777;SDS011;4425;50.872;4.712;2023-03-01T07:40:57;18.52;;;13.25;;
8777;SDS011;4425;50.872;4.712;2023-03-01T07:43:30;14.48;;;13.00;;
8777;SDS011;4425;50.872;4.712;2023-03-01T07:45:58;14.45;;;12.95;;
8777;SDS011;4425;50.872;4.712;2023-03-01T07:48:31;15.88;;;13.10;;
8777;SDS011;4425;50.872;4.712;2023-03-01T07:51:00;14.68;;;13.07;;
8777;SDS011;4425;50.872;4.712;2023-03-01T07:53:28;14.15;;;12.63;;
8777;SDS011;4425;50.872;4.712;2023-03-01T07:56:03;13.50;;;11.82;;
8777;SDS011;4425;50.872;4.712;2023-03-01T07:58:41;13.32;;;11.63;;
8777;SDS011;4425;50.872;4.712;2023-03-01T08:01:10;14.52;;;11.93;;
8777;SDS011;4425;50.872;4.712;2023-03-01T08:03:39;12.30;;;11.10;;
8777;SDS011;4425;50.872;4.712;2023-03-01T08:06:08;14.30;;;11.50;;
8777;SDS011;4425;50.872;4.712;2023-03-01T08:08:37;13.27;;;11.23;;
8777;SDS011;4425;50.872;4.712;2023-03-01T08:11:09;12.77;;;11.47;;
8777;SDS011;4425;50.872;4.712;2023-03-01T08:13:43;13.88;;;11.88;;
8777;SDS011;4425;50.872;4.712;2023-03-01T08:18:46;13.27;;;11.70;;
8777;SDS011;4425;50.872;4.712;2023-03-01T08:21:18;14.95;;;11.30;;
8777;SDS011;4425;50.872;4.712;2023-03-01T08:23:46;12.50;;;11.20;;
8777;SDS011;4425;50.872;4.712;2023-03-01T08:26:14;13.00;;;11.60;;
8777;SDS011;4425;50.872;4.712;2023-03-01T08:28:44;12.45;;;11.23;;
8777;SDS011;4425;50.872;4.712;2023-03-01T08:31:13;13.13;;;11.73;;
8777;SDS011;4425;50.872;4.712;2023-03-01T08:33:42;13.87;;;11.50;;
8777;SDS011;4425;50.872;4.712;2023-03-01T08:36:10;14.25;;;12.10;;
8777;SDS011;4425;50.872;4.712;2023-03-01T08:38:37;17.08;;;12.77;;
8777;SDS011;4425;50.872;4.712;2023-03-01T08:41:05;14.87;;;12.70;;
8777;SDS011;4425;50.872;4.712;2023-03-01T08:43:33;14.30;;;12.43;;
8777;SDS011;4425;50.872;4.712;2023-03-01T08:46:05;14.73;;;12.88;;
8777;SDS011;4425;50.872;4.712;2023-03-01T08:48:34;14.95;;;12.45;;
8777;SDS011;4425;50.872;4.712;2023-03-01T08:51:08;16.00;;;13.10;;
8777;SDS011;4425;50.872;4.712;2023-03-01T08:53:39;13.70;;;12.20;;
8777;SDS011;4425;50.872;4.712;2023-03-01T08:56:14;14.70;;;12.65;;
8777;SDS011;4425;50.872;4.712;2023-03-01T08:58:45;14.85;;;13.32;;
8777;SDS011;4425;50.872;4.712;2023-03-01T09:01:32;15.85;;;13.30;;
8777;SDS011;4425;50.872;4.712;2023-03-01T09:03:59;17.50;;;13.02;;
8777;SDS011;4425;50.872;4.712;2023-03-01T09:06:29;15.77;;;13.23;;
8777;SDS011;4425;50.872;4.712;2023-03-01T09:08:58;15.55;;;13.40;;
8777;SDS011;4425;50.872;4.712;2023-03-01T09:11:27;16.35;;;12.98;;
8777;SDS011;4425;50.872;4.712;2023-03-01T09:13:55;14.68;;;13.18;;
8777;SDS011;4425;50.872;4.712;2023-03-01T09:16:25;14.30;;;12.80;;
8777;SDS011;4425;50.872;4.712;2023-03-01T09:18:54;15.23;;;12.93;;
8777;SDS011;4425;50.872;4.712;2023-03-01T09:21:22;16.67;;;13.32;;
8777;SDS011;4425;50.872;4.712;2023-03-01T09:23:50;15.40;;;13.68;;
8777;SDS011;4425;50.872;4.712;2023-03-01T09:26:20;16.48;;;13.52;;
8777;SDS011;4425;50.872;4.712;2023-03-01T09:28:51;16.23;;;13.57;;
8777;SDS011;4425;50.872;4.712;2023-03-01T09:31:22;14.82;;;12.90;;
8777;SDS011;4425;50.872;4.712;2023-03-01T09:33:52;15.15;;;13.40;;
8777;SDS011;4425;50.872;4.712;2023-03-01T09:36:25;14.65;;;13.15;;
8777;SDS011;4425;50.872;4.712;2023-03-01T09:39:11;15.03;;;13.43;;
8777;SDS011;4425;50.872;4.712;2023-03-01T09:42:19;14.52;;;13.02;;
8777;SDS011;4425;50.872;4.712;2023-03-01T09:44:49;15.40;;;13.57;;
8777;SDS011;4425;50.872;4.712;2023-03-01T09:47:26;15.20;;;13.15;;
8777;SDS011;4425;50.872;4.712;2023-03-01T09:53:04;13.77;;;12.38;;
8777;SDS011;4425;50.872;4.712;2023-03-01T09:55:37;14.85;;;13.00;;
8777;SDS011;4425;50.872;4.712;2023-03-01T09:58:35;16.30;;;13.98;;
8777;SDS011;4425;50.872;4.712;2023-03-01T10:01:27;21.00;;;13.63;;
8777;SDS011;4425;50.872;4.712;2023-03-01T10:04:11;17.15;;;14.82;;
8777;SDS011;4425;50.872;4.712;2023-03-01T10:06:50;14.73;;;13.23;;
8777;SDS011;4425;50.872;4.712;2023-03-01T10:09:32;14.57;;;13.07;;
8777;SDS011;4425;50.872;4.712;2023-03-01T10:12:08;15.02;;;13.25;;
8777;SDS011;4425;50.872;4.712;2023-03-01T10:14:39;14.27;;;12.70;;
8777;SDS011;4425;50.872;4.712;2023-03-01T10:24:08;16.67;;;13.55;;
8777;SDS011;4425;50.872;4.712;2023-03-01T10:26:58;14.88;;;12.82;;
8777;SDS011;4425;50.872;4.712;2023-03-01T10:32:30;16.45;;;13.30;;
8777;SDS011;4425;50.872;4.712;2023-03-01T10:35:00;15.20;;;13.10;;
8777;SDS011;4425;50.872;4.712;2023-03-01T10:37:27;14.85;;;12.48;;
8777;SDS011;4425;50.872;4.712;2023-03-01T10:40:01;14.20;;;12.80;;
8777;SDS011;4425;50.872;4.712;2023-03-01T10:42:46;14.50;;;12.90;;
8777;SDS011;4425;50.872;4.712;2023-03-01T10:45:19;14.63;;;13.13;;
8777;SDS011;4425;50.872;4.712;2023-03-01T10:48:11;14.07;;;12.60;;
8777;SDS011;4425;50.872;4.712;2023-03-01T10:53:23;13.30;;;12.00;;
8777;SDS011;4425;50.872;4.712;2023-03-01T10:58:30;16.27;;;13.10;;
8777;SDS011;4425;50.872;4.712;2023-03-01T11:00:59;14.20;;;12.70;;
8777;SDS011;4425;50.872;4.712;2023-03-01T11:03:28;14.05;;;12.63;;
8777;SDS011;4425;50.872;4.712;2023-03-01T11:06:06;13.10;;;11.80;;
8777;SDS011;4425;50.872;4.712;2023-03-01T11:08:48;13.52;;;12.13;;
8777;SDS011;4425;50.872;4.712;2023-03-01T11:11:20;15.40;;;11.93;;
8777;SDS011;4425;50.872;4.712;2023-03-01T11:13:57;14.88;;;12.10;;
8777;SDS011;4425;50.872;4.712;2023-03-01T11:16:27;13.20;;;11.15;;
8777;SDS011;4425;50.872;4.712;2023-03-01T11:18:59;14.00;;;11.88;;
8777;SDS011;4425;50.872;4.712;2023-03-01T11:21:42;14.70;;;11.97;;
8777;SDS011;4425;50.872;4.712;2023-03-01T11:24:17;13.00;;;11.80;;
8777;SDS011;4425;50.872;4.712;2023-03-01T11:26:47;13.27;;;11.93;;
8777;SDS011;4425;50.872;4.712;2023-03-01T11:29:30;13.10;;;11.68;;
8777;SDS011;4425;50.872;4.712;2023-03-01T11:32:02;14.68;;;11.95;;
8777;SDS011;4425;50.872;4.712;2023-03-01T11:34:37;13.35;;;11.95;;
8777;SDS011;4425;50.872;4.712;2023-03-01T11:37:14;12.63;;;11.25;;
8777;SDS011;4425;50.872;4.712;2023-03-01T11:39:53;14.27;;;12.30;;
8777;SDS011;4425;50.872;4.712;2023-03-01T11:42:31;12.65;;;11.38;;
8777;SDS011;4425;50.872;4.712;2023-03-01T11:45:42;13.05;;;11.65;;
8777;SDS011;4425;50.872;4.712;2023-03-01T11:51:33;13.52;;;11.60;;
8777;SDS011;4425;50.872;4.712;2023-03-01T11:54:24;13.18;;;11.75;;
8777;SDS011;4425;50.872;4.712;2023-03-01T11:57:38;14.55;;;12.65;;
8777;SDS011;4425;50.872;4.712;2023-03-01T12:00:41;14.70;;;13.20;;
8777;SDS011;4425;50.872;4.712;2023-03-01T12:03:24;13.32;;;11.88;;
8777;SDS011;4425;50.872;4.712;2023-03-01T12:06:23;13.00;;;11.70;;
8777;SDS011;4425;50.872;4.712;2023-03-01T12:09:03;12.73;;;11.43;;
8777;SDS011;4425;50.872;4.712;2023-03-01T12:14:44;13.13;;;11.68;;
8777;SDS011;4425;50.872;4.712;2023-03-01T12:20:30;12.38;;;11.10;;
8777;SDS011;4425;50.872;4.712;2023-03-01T12:23:14;16.17;;;10.85;;
8777;SDS011;4425;50.872;4.712;2023-03-01T12:25:51;14.13;;;11.17;;
8777;SDS011;4425;50.872;4.712;2023-03-01T12:28:25;13.68;;;11.65;;
8777;SDS011;4425;50.872;4.712;2023-03-01T12:34:12;12.43;;;11.13;;
8777;SDS011;4425;50.872;4.712;2023-03-01T12:40:01;12.88;;;11.50;;
8777;SDS011;4425;50.872;4.712;2023-03-01T12:42:43;19.10;;;12.05;;
8777;SDS011;4425;50.872;4.712;2023-03-01T12:45:34;13.18;;;11.75;;
8777;SDS011;4425;50.872;4.712;2023-03-01T12:48:18;13.43;;;12.10;;
8777;SDS011;4425;50.872;4.712;2023-03-01T12:50:58;13.88;;;11.80;;
8777;SDS011;4425;50.872;4.712;2023-03-01T12:53:34;13.57;;;12.18;;
8777;SDS011;4425;50.872;4.712;2023-03-01T12:56:08;31.75;;;14.38;;
8777;SDS011;4425;50.872;4.712;2023-03-01T12:58:40;12.95;;;11.63;;
8777;SDS011;4425;50.872;4.712;2023-03-01T13:01:15;12.55;;;10.98;;
8777;SDS011;4425;50.872;4.712;2023-03-01T13:04:07;28.05;;;13.52;;
8777;SDS011;4425;50.872;4.712;2023-03-01T13:06:47;15.13;;;11.00;;
8777;SDS011;4425;50.872;4.712;2023-03-01T13:09:27;14.93;;;11.47;;
8777;SDS011;4425;50.872;4.712;2023-03-01T13:12:01;14.35;;;11.60;;
8777;SDS011;4425;50.872;4.712;2023-03-01T13:14:45;12.50;;;11.20;;
8777;SDS011;4425;50.872;4.712;2023-03-01T13:20:13;25.50;;;12.53;;
8777;SDS011;4425;50.872;4.712;2023-03-01T13:22:43;47.05;;;14.30;;
8777;SDS011;4425;50.872;4.712;2023-03-01T13:25:14;18.75;;;11.45;;
8777;SDS011;4425;50.872;4.712;2023-03-01T13:27:44;13.38;;;11.50;;
8777;SDS011;4425;50.872;4.712;2023-03-01T13:36:06;12.20;;;10.90;;
8777;SDS011;4425;50.872;4.712;2023-03-01T13:38:37;12.27;;;10.75;;
8777;SDS011;4425;50.872;4.712;2023-03-01T13:41:12;11.55;;;10.43;;
8777;SDS011;4425;50.872;4.712;2023-03-01T13:43:41;12.38;;;11.05;;
8777;SDS011;4425;50.872;4.712;2023-03-01T13:46:12;11.60;;;10.40;;
8777;SDS011;4425;50.872;4.712;2023-03-01T13:48:43;17.33;;;10.45;;
8777;SDS011;4425;50.872;4.712;2023-03-01T13:51:12;13.13;;;10.60;;
8777;SDS011;4425;50.872;4.712;2023-03-01T13:53:40;11.30;;;10.10;;
8777;SDS011;4425;50.872;4.712;2023-03-01T13:56:12;13.30;;;10.82;;
8777;SDS011;4425;50.872;4.712;2023-03-01T13:58:52;12.48;;;10.60;;
8777;SDS011;4425;50.872;4.712;2023-03-01T14:01:29;15.17;;;10.47;;
8777;SDS011;4425;50.872;4.712;2023-03-01T14:04:18;12.02;;;10.77;;
8777;SDS011;4425;50.872;4.712;2023-03-01T14:06:51;11.90;;;10.35;;
8777;SDS011;4425;50.872;4.712;2023-03-01T14:09:22;16.55;;;10.50;;
8777;SDS011;4425;50.872;4.712;2023-03-01T14:14:57;13.48;;;11.23;;
8777;SDS011;4425;50.872;4.712;2023-03-01T14:17:41;12.80;;;10.70;;
8777;SDS011;4425;50.872;4.712;2023-03-01T14:20:19;13.82;;;10.65;;
8777;SDS011;4425;50.872;4.712;2023-03-01T14:22:53;17.77;;;11.23;;
8777;SDS011;4425;50.872;4.712;2023-03-01T14:31:38;13.93;;;10.18;;
8777;SDS011;4425;50.872;4.712;2023-03-01T14:37:09;11.40;;;10.20;;
8777;SDS011;4425;50.872;4.712;2023-03-01T14:39:37;12.35;;;10.10;;
8777;SDS011;4425;50.872;4.712;2023-03-01T14:49:09;10.98;;;9.48;;
8777;SDS011;4425;50.872;4.712;2023-03-01T14:51:40;10.68;;;9.35;;
8777;SDS011;4425;50.872;4.712;2023-03-01T14:54:18;11.95;;;9.43;;
8777;SDS011;4425;50.872;4.712;2023-03-01T14:56:50;11.18;;;9.18;;
8777;SDS011;4425;50.872;4.712;2023-03-01T14:59:20;10.10;;;9.20;;
8777;SDS011;4425;50.872;4.712;2023-03-01T15:01:48;10.45;;;9.40;;
8777;SDS011;4425;50.872;4.712;2023-03-01T15:04:21;10.32;;;8.68;;
8777;SDS011;4425;50.872;4.712;2023-03-01T15:06:50;9.63;;;8.77;;
8777;SDS011;4425;50.872;4.712;2023-03-01T15:09:20;10.90;;;8.73;;
8777;SDS011;4425;50.872;4.712;2023-03-01T15:11:48;11.02;;;8.88;;
8777;SDS011;4425;50.872;4.712;2023-03-01T15:14:26;10.95;;;9.25;;
8777;SDS011;4425;50.872;4.712;2023-03-01T15:20:06;10.50;;;8.88;;
8777;SDS011;4425;50.872;4.712;2023-03-01T15:22:43;10.18;;;9.10;;
8777;SDS011;4425;50.872;4.712;2023-03-01T15:25:15;10.10;;;8.98;;
8777;SDS011;4425;50.872;4.712;2023-03-01T15:27:45;13.60;;;8.80;;
8777;SDS011;4425;50.872;4.712;2023-03-01T15:30:14;10.17;;;8.70;;
8777;SDS011;4425;50.872;4.712;2023-03-01T15:32:45;14.30;;;8.88;;
8777;SDS011;4425;50.872;4.712;2023-03-01T15:38:23;10.75;;;8.75;;
8777;SDS011;4425;50.872;4.712;2023-03-01T15:40:54;9.70;;;8.70;;
8777;SDS011;4425;50.872;4.712;2023-03-01T15:43:42;10.13;;;9.10;;
8777;SDS011;4425;50.872;4.712;2023-03-01T15:46:28;9.85;;;8.73;;
8777;SDS011;4425;50.872;4.712;2023-03-01T15:49:22;10.27;;;8.80;;
8777;SDS011;4425;50.872;4.712;2023-03-01T15:52:06;10.60;;;8.65;;
8777;SDS011;4425;50.872;4.712;2023-03-01T15:54:40;10.55;;;9.48;;
8777;SDS011;4425;50.872;4.712;2023-03-01T15:57:10;10.55;;;8.80;;
8777;SDS011;4425;50.872;4.712;2023-03-01T15:59:40;10.18;;;9.15;;
8777;SDS011;4425;50.872;4.712;2023-03-01T16:02:09;9.73;;;8.73;;
8777;SDS011;4425;50.872;4.712;2023-03-01T16:04:37;10.57;;;8.73;;
8777;SDS011;4425;50.872;4.712;2023-03-01T16:07:09;10.18;;;8.40;;
8777;SDS011;4425;50.872;4.712;2023-03-01T16:09:36;10.88;;;8.30;;
8777;SDS011;4425;50.872;4.712;2023-03-01T16:12:03;10.85;;;9.00;;
8777;SDS011;4425;50.872;4.712;2023-03-01T16:14:36;9.77;;;8.77;;
8777;SDS011;4425;50.872;4.712;2023-03-01T16:17:04;10.60;;;8.55;;
8777;SDS011;4425;50.872;4.712;2023-03-01T16:19:36;9.70;;;8.35;;
8777;SDS011;4425;50.872;4.712;2023-03-01T16:22:03;10.85;;;8.98;;
8777;SDS011;4425;50.872;4.712;2023-03-01T16:24:38;11.43;;;8.30;;
8777;SDS011;4425;50.872;4.712;2023-03-01T16:27:08;9.85;;;8.15;;
8777;SDS011;4425;50.872;4.712;2023-03-01T16:29:35;9.93;;;8.33;;
8777;SDS011;4425;50.872;4.712;2023-03-01T16:32:03;9.02;;;8.10;;
8777;SDS011;4425;50.872;4.712;2023-03-01T16:34:34;9.45;;;8.35;;
8777;SDS011;4425;50.872;4.712;2023-03-01T16:37:02;9.73;;;8.50;;
8777;SDS011;4425;50.872;4.712;2023-03-01T16:39:35;11.10;;;8.27;;
8777;SDS011;4425;50.872;4.712;2023-03-01T16:42:10;11.50;;;8.53;;
8777;SDS011;4425;50.872;4.712;2023-03-01T16:44:38;10.52;;;8.60;;
8777;SDS011;4425;50.872;4.712;2023-03-01T16:47:07;12.40;;;8.60;;
8777;SDS011;4425;50.872;4.712;2023-03-01T16:49:35;13.70;;;8.05;;
8777;SDS011;4425;50.872;4.712;2023-03-01T16:52:07;10.65;;;8.35;;
8777;SDS011;4425;50.872;4.712;2023-03-01T16:54:39;9.73;;;8.70;;
8777;SDS011;4425;50.872;4.712;2023-03-01T16:57:06;10.15;;;9.02;;
8777;SDS011;4425;50.872;4.712;2023-03-01T16:59:34;9.77;;;8.50;;